Salishan — WUT4384 — position and weather

sailwx.info

Track history (hours):
 
Tides and Currents Weather Stations Pressure Air Temp Water Temp Dewpoint Dewpoint Depression Visibility Wind Speed Wind Dir Waves Ship Positions

Salishan

Owner: Sause Bros. Inc., COOS BAY, OR. More information available from US FCC via Universal Licensing System and Coast Guard Vessel Documentation Center.

Last reported at 2016-Mar-21 08:16 UTC. Time now 2016-Dec-11 06:14 UTC.
Position N 45°32' W 124°49'.
Warning: this ship's position is months out of date.

MMSI: 367007912.

Date/timePositionNaut miles runAvg speedWind from/ knotsBaromVisibWave heightAir tempDewpointWater temp
2016-Mar-21 08:16N 45°32' W 124°49'3 3.4
2016-Mar-21 07:31N 45°34' W 124°48'3 3.6
2016-Mar-21 06:33N 45°38' W 124°46'4 4.1
2016-Mar-21 05:33N 45°42' W 124°45'4 3.9
2016-Mar-21 04:33N 45°45' W 124°43'4 3.7
2016-Mar-21 03:33N 45°49' W 124°41'4 3.6
2016-Mar-21 02:33N 45°52' W 124°40'4 3.7
2016-Mar-21 01:33N 45°55' W 124°37'4 3.9
2016-Mar-21 00:33N 45°58' W 124°33'4 4.4
2016-Mar-20 23:33N 46°01' W 124°28'5 5.3
2016-Mar-20 22:33N 46°05' W 124°23'6 5.7
2016-Mar-20 21:33N 46°09' W 124°17'6 5.8
2016-Mar-20 20:33N 46°12' W 124°10'7 6.9
2016-Mar-20 19:33N 46°15' W 124°01'7 6.7
2016-Mar-20 18:33N 46°11' W 123°53'7 7.0
2016-Mar-20 17:33N 46°14' W 123°44'8 8.0
2016-Mar-20 16:33N 46°16' W 123°33'7 7.4
2016-Mar-20 15:33N 46°10' W 123°25'10 9.7
2016-Mar-20 14:33N 46°11' W 123°11'1010.2
2016-Mar-20 13:33N 46°06' W 122°58'1 0.8
2016-Mar-20 12:33N 46°06' W 122°57'0 0.0
2016-Mar-20 11:33N 46°06' W 122°57'0 0.0
2016-Mar-20 10:24N 46°06' W 122°57'0 0.0
2016-Mar-20 09:33N 46°06' W 122°57'0 0.0
2016-Mar-20 08:33N 46°06' W 122°57'0 0.0
2016-Mar-20 07:33N 46°06' W 122°57'0 0.0
2016-Mar-20 06:33N 46°06' W 122°57'0 0.0
2016-Mar-20 05:33N 46°06' W 122°57'0 0.0
2016-Mar-20 04:33N 46°06' W 122°57'0 0.0
2016-Mar-20 03:27N 46°06' W 122°57'0 0.0
2016-Mar-20 02:33N 46°06' W 122°57'1 1.1
2016-Mar-20 01:33N 46°05' W 122°56'6 5.8
2016-Mar-20 00:33N 46°09' W 123°02'8 7.7
2016-Mar-19 23:33N 46°10' W 123°13'8 7.9
2016-Mar-19 22:34N 46°10' W 123°25'7 7.4
2016-Mar-19 21:34N 46°16' W 123°31'9 9.2
2016-Mar-19 20:34N 46°14' W 123°44'9 8.9
2016-Mar-19 19:34N 46°13' W 123°57'8 8.1
2016-Mar-19 18:33N 46°13' W 124°09'1111.1
2016-Mar-19 17:33N 46°06' W 124°20'1010.3
2016-Mar-19 16:34N 45°56' W 124°24'1110.8
2016-Mar-19 15:33N 45°45' W 124°25'1111.4
2016-Mar-19 14:33N 45°34' W 124°28'1212.2
2016-Mar-19 13:33N 45°21' W 124°30'  
Track history (hours):
 
Tides and Currents Weather Stations Pressure Air Temp Water Temp Dewpoint Dewpoint Depression Visibility Wind Speed Wind Dir Waves Ship Positions

Salishan

Owner: Sause Bros. Inc., COOS BAY, OR. More information available from US FCC via Universal Licensing System and Coast Guard Vessel Documentation Center.

Last reported at 2016-Mar-21 08:16 UTC. Time now 2016-Dec-11 06:14 UTC.
Position N 45°32' W 124°49'.
Warning: this ship's position is months out of date.

MMSI: 367007912.

Date/timePositionNaut miles runAvg speedWind from/ knotsBaromVisibWave heightAir tempDewpointWater temp
2016-Mar-21 08:16N 45°32' W 124°49'3 3.4
2016-Mar-21 07:31N 45°34' W 124°48'3 3.6
2016-Mar-21 06:33N 45°38' W 124°46'4 4.1
2016-Mar-21 05:33N 45°42' W 124°45'4 3.9
2016-Mar-21 04:33N 45°45' W 124°43'4 3.7
2016-Mar-21 03:33N 45°49' W 124°41'4 3.6
2016-Mar-21 02:33N 45°52' W 124°40'4 3.7
2016-Mar-21 01:33N 45°55' W 124°37'4 3.9
2016-Mar-21 00:33N 45°58' W 124°33'4 4.4
2016-Mar-20 23:33N 46°01' W 124°28'5 5.3
2016-Mar-20 22:33N 46°05' W 124°23'6 5.7
2016-Mar-20 21:33N 46°09' W 124°17'6 5.8
2016-Mar-20 20:33N 46°12' W 124°10'7 6.9
2016-Mar-20 19:33N 46°15' W 124°01'7 6.7
2016-Mar-20 18:33N 46°11' W 123°53'7 7.0
2016-Mar-20 17:33N 46°14' W 123°44'8 8.0
2016-Mar-20 16:33N 46°16' W 123°33'7 7.4
2016-Mar-20 15:33N 46°10' W 123°25'10 9.7
2016-Mar-20 14:33N 46°11' W 123°11'1010.2
2016-Mar-20 13:33N 46°06' W 122°58'1 0.8
2016-Mar-20 12:33N 46°06' W 122°57'0 0.0
2016-Mar-20 11:33N 46°06' W 122°57'0 0.0
2016-Mar-20 10:24N 46°06' W 122°57'0 0.0
2016-Mar-20 09:33N 46°06' W 122°57'0 0.0
2016-Mar-20 08:33N 46°06' W 122°57'0 0.0
2016-Mar-20 07:33N 46°06' W 122°57'0 0.0
2016-Mar-20 06:33N 46°06' W 122°57'0 0.0
2016-Mar-20 05:33N 46°06' W 122°57'0 0.0
2016-Mar-20 04:33N 46°06' W 122°57'0 0.0
2016-Mar-20 03:27N 46°06' W 122°57'0 0.0
2016-Mar-20 02:33N 46°06' W 122°57'1 1.1
2016-Mar-20 01:33N 46°05' W 122°56'6 5.8
2016-Mar-20 00:33N 46°09' W 123°02'8 7.7
2016-Mar-19 23:33N 46°10' W 123°13'8 7.9
2016-Mar-19 22:34N 46°10' W 123°25'7 7.4
2016-Mar-19 21:34N 46°16' W 123°31'9 9.2
2016-Mar-19 20:34N 46°14' W 123°44'9 8.9
2016-Mar-19 19:34N 46°13' W 123°57'8 8.1
2016-Mar-19 18:33N 46°13' W 124°09'1111.1
2016-Mar-19 17:33N 46°06' W 124°20'1010.3
2016-Mar-19 16:34N 45°56' W 124°24'1110.8
2016-Mar-19 15:33N 45°45' W 124°25'1111.4
2016-Mar-19 14:33N 45°34' W 124°28'1212.2
2016-Mar-19 13:33N 45°21' W 124°30'  

Dump ship's entire track history